Time;durP1;ratioP1;P1;durP2;ratioP2;P2;SDS_P1;SDS_P2;PMS_P1;PMS_P2;Temp;Humidity;BMP_temperature;BMP_pressure;BME280_temperature;BME280_humidity;BME280_pressure;Samples;Min_cycle;Max_cycle;Signal;HPM_P1;HPM_P2
2023/09/26 00:00:42;;;;;;;1.80;1.70;;;17.50;99.90;;;;;;4942965;28;20082;-72
2023/09/26 00:03:08;;;;;;;2.55;1.55;;;17.50;99.90;;;;;;4939920;28;20110;-72
2023/09/26 00:05:34;;;;;;;2.08;1.45;;;17.60;99.90;;;;;;4946481;28;20027;-72
2023/09/26 00:08:03;;;;;;;2.42;1.63;;;17.50;99.90;;;;;;5006031;28;20036;-72
2023/09/26 00:10:31;;;;;;;1.40;1.30;;;17.60;99.90;;;;;;4941037;28;20086;-72
2023/09/26 00:12:57;;;;;;;1.80;1.70;;;17.50;99.90;;;;;;4942655;28;20039;-73
2023/09/26 00:15:23;;;;;;;2.67;1.60;;;17.50;99.90;;;;;;4943430;28;20038;-72
2023/09/26 00:17:50;;;;;;;1.98;1.88;;;17.50;99.90;;;;;;5007778;28;20020;-72
2023/09/26 00:20:19;;;;;;;4.07;1.80;;;17.50;99.90;;;;;;4941716;28;20367;-76
2023/09/26 00:22:44;;;;;;;2.47;1.58;;;17.50;99.90;;;;;;4943282;28;20031;-75
2023/09/26 00:25:10;;;;;;;1.50;1.40;;;17.50;99.90;;;;;;4941826;28;20028;-75
2023/09/26 00:27:36;;;;;;;2.13;1.60;;;17.50;99.90;;;;;;4962188;28;20032;-75
2023/09/26 00:30:02;;;;;;;2.88;1.73;;;17.50;99.90;;;;;;4941639;28;20046;-76
2023/09/26 00:32:30;;;;;;;1.60;1.50;;;17.50;99.90;;;;;;4944505;28;20074;-75
2023/09/26 00:34:56;;;;;;;1.95;1.42;;;17.50;99.90;;;;;;4939774;28;20016;-76
2023/09/26 00:37:22;;;;;;;1.73;1.63;;;17.40;99.90;;;;;;4942649;28;20387;-76
2023/09/26 00:39:47;;;;;;;2.35;1.52;;;17.40;99.90;;;;;;4941839;28;20042;-75
2023/09/26 00:42:14;;;;;;;1.42;1.33;;;17.40;99.90;;;;;;4944270;28;20349;-74
2023/09/26 00:44:39;;;;;;;1.80;1.40;;;17.40;99.90;;;;;;4939353;28;20050;-75
2023/09/26 00:47:05;;;;;;;1.35;1.33;;;17.40;99.90;;;;;;4939677;28;20468;-75
2023/09/26 00:49:31;;;;;;;3.05;1.52;;;17.40;99.90;;;;;;4942242;28;20106;-75
2023/09/26 00:51:59;;;;;;;2.00;1.67;;;17.40;99.90;;;;;;4947991;28;20031;-74
2023/09/26 00:54:26;;;;;;;1.35;1.27;;;17.40;99.90;;;;;;4941133;28;20055;-75
2023/09/26 00:56:52;;;;;;;1.55;1.42;;;17.40;1.00;;;;;;4960241;28;20027;-75
2023/09/26 00:59:18;;;;;;;1.98;1.45;;;17.30;1.00;;;;;;4940968;28;20019;-75
2023/09/26 01:01:45;;;;;;;3.95;1.40;;;17.30;1.00;;;;;;4943752;28;20023;-75
2023/09/26 01:04:11;;;;;;;2.35;1.60;;;17.30;1.00;;;;;;4942080;28;20399;-75
2023/09/26 01:06:37;;;;;;;1.63;1.23;;;17.30;1.00;;;;;;5008234;28;20031;-75
2023/09/26 01:09:05;;;;;;;1.80;1.70;;;17.40;1.00;;;;;;4943444;28;20106;-75
2023/09/26 01:11:31;;;;;;;1.92;1.50;;;17.40;1.00;;;;;;4941093;28;20023;-75
2023/09/26 01:13:57;;;;;;;2.35;1.50;;;17.40;1.00;;;;;;4942945;28;20077;-74
2023/09/26 01:16:23;;;;;;;1.88;1.60;;;17.40;1.00;;;;;;4942686;28;20514;-75
2023/09/26 01:18:48;;;;;;;2.03;1.40;;;17.40;1.00;;;;;;4941337;28;20031;-75
2023/09/26 01:21:14;;;;;;;2.20;1.67;;;17.40;1.00;;;;;;4946246;28;20032;-74
2023/09/26 01:23:41;;;;;;;1.63;1.52;;;17.40;99.90;;;;;;4940612;28;20031;-75
2023/09/26 01:26:08;;;;;;;1.90;1.80;;;17.50;1.00;;;;;;4943017;28;20444;-75
2023/09/26 01:28:35;;;;;;;1.60;1.40;;;17.40;99.90;;;;;;5017203;28;20115;-75
2023/09/26 01:31:01;;;;;;;2.72;1.90;;;17.50;99.90;;;;;;4940984;28;20391;-74
2023/09/26 01:33:27;;;;;;;1.45;1.35;;;17.40;1.00;;;;;;4943357;28;20028;-75
2023/09/26 01:35:52;;;;;;;1.48;1.38;;;17.40;99.90;;;;;;4941000;28;20404;-75
2023/09/26 01:38:19;;;;;;;1.50;1.40;;;17.50;99.90;;;;;;4942070;29;20027;-75
2023/09/26 01:40:48;;;;;;;1.83;1.40;;;17.40;99.90;;;;;;5008424;28;20045;-74
2023/09/26 01:43:13;;;;;;;1.80;1.70;;;17.40;99.90;;;;;;4940379;28;20501;-75
2023/09/26 01:45:39;;;;;;;2.38;2.17;;;17.40;1.00;;;;;;5009229;28;20031;-74
2023/09/26 01:48:05;;;;;;;2.22;1.77;;;17.40;99.90;;;;;;4941086;28;20020;-75
2023/09/26 01:50:35;;;;;;;1.70;1.50;;;17.50;99.90;;;;;;4941874;28;20031;-75
2023/09/26 01:53:01;;;;;;;2.25;1.80;;;17.40;99.90;;;;;;4943763;28;20027;-75
2023/09/26 01:55:27;;;;;;;2.45;1.30;;;17.40;99.90;;;;;;4940267;28;20071;-76
2023/09/26 01:57:53;;;;;;;4.28;1.98;;;17.40;99.90;;;;;;4943688;28;20380;-75
2023/09/26 02:00:19;;;;;;;4.00;1.75;;;17.40;99.90;;;;;;4941790;28;20259;-75
2023/09/26 02:02:51;;;;;;;3.13;1.80;;;17.40;99.90;;;;;;5006396;28;20027;-76
2023/09/26 02:05:19;;;;;;;3.08;1.40;;;17.40;99.90;;;;;;4943467;28;20472;-75
2023/09/26 02:07:46;;;;;;;4.85;1.40;;;17.40;99.90;;;;;;4941481;28;20020;-74
2023/09/26 02:10:12;;;;;;;2.20;1.73;;;17.40;99.90;;;;;;4940939;28;20387;-75
2023/09/26 02:12:39;;;;;;;3.15;1.75;;;17.30;1.00;;;;;;4942928;28;20027;-75
2023/09/26 02:15:08;;;;;;;2.60;1.70;;;17.30;1.00;;;;;;4940142;28;20502;-75
2023/09/26 02:17:35;;;;;;;1.90;1.80;;;17.30;99.90;;;;;;5007620;28;20031;-75
2023/09/26 02:20:02;;;;;;;1.70;1.60;;;17.30;1.00;;;;;;5007357;28;20019;-75
2023/09/26 02:22:27;;;;;;;1.40;1.30;;;17.30;1.00;;;;;;4937404;28;20054;-75
2023/09/26 02:24:53;;;;;;;1.60;1.40;;;17.30;1.00;;;;;;4939952;28;20028;-74
2023/09/26 02:27:19;;;;;;;1.88;1.77;;;17.30;1.00;;;;;;4947165;28;20019;-75
2023/09/26 02:29:45;;;;;;;1.67;1.58;;;17.30;1.00;;;;;;4941195;28;20103;-75
2023/09/26 02:32:11;;;;;;;2.35;1.58;;;17.30;1.00;;;;;;4942069;28;20034;-75
2023/09/26 02:34:36;;;;;;;4.45;2.13;;;17.30;1.00;;;;;;4943469;28;20034;-75
2023/09/26 02:37:02;;;;;;;1.70;1.60;;;17.30;1.00;;;;;;4939774;28;20020;-75
2023/09/26 02:39:28;;;;;;;4.47;2.08;;;17.30;1.00;;;;;;5007610;28;20559;-76
2023/09/26 02:41:54;;;;;;;1.77;1.67;;;17.30;1.00;;;;;;4941109;28;20400;-75
2023/09/26 02:44:20;;;;;;;1.95;1.85;;;17.20;1.00;;;;;;4940138;28;20028;-75
2023/09/26 02:46:45;;;;;;;1.75;1.65;;;17.20;1.00;;;;;;4942595;28;20497;-76
2023/09/26 02:49:11;;;;;;;1.90;1.73;;;17.20;1.00;;;;;;4938843;28;20028;-75
2023/09/26 02:51:37;;;;;;;2.90;1.80;;;17.20;1.00;;;;;;4939486;28;20019;-75
2023/09/26 02:54:03;;;;;;;4.75;1.88;;;17.10;1.00;;;;;;4940704;28;20066;-75
2023/09/26 02:56:28;;;;;;;2.10;1.92;;;17.10;1.00;;;;;;4956667;28;20055;-75
2023/09/26 02:58:54;;;;;;;2.10;1.58;;;17.10;1.00;;;;;;4947038;28;20031;-75
2023/09/26 03:01:20;;;;;;;3.50;1.85;;;17.10;1.00;;;;;;4956129;28;20030;-75
2023/09/26 03:03:48;;;;;;;3.92;1.83;;;17.10;1.00;;;;;;4939607;28;20598;-76
2023/09/26 03:06:13;;;;;;;2.28;1.73;;;17.10;1.00;;;;;;4940682;29;20113;-75
2023/09/26 03:08:39;;;;;;;1.80;1.45;;;17.00;1.00;;;;;;4941742;28;20095;-75
2023/09/26 03:11:05;;;;;;;1.92;1.70;;;17.00;1.00;;;;;;4939225;28;20024;-75
2023/09/26 03:13:32;;;;;;;2.30;2.00;;;17.00;1.00;;;;;;4941941;28;20042;-75
2023/09/26 03:15:58;;;;;;;2.78;1.50;;;17.00;1.00;;;;;;4940248;28;20094;-77
2023/09/26 03:18:27;;;;;;;1.70;1.50;;;17.00;1.00;;;;;;4940178;28;20063;-76
2023/09/26 03:20:53;;;;;;;1.60;1.50;;;17.00;1.00;;;;;;5011651;28;20031;-75
2023/09/26 03:23:24;;;;;;;4.30;1.73;;;17.00;1.00;;;;;;4938253;28;20375;-75
2023/09/26 03:25:49;;;;;;;1.55;1.45;;;17.00;1.00;;;;;;5015166;28;20024;-75
2023/09/26 03:28:15;;;;;;;2.08;1.80;;;17.00;1.00;;;;;;4958488;28;20395;-74
2023/09/26 03:30:43;;;;;;;1.60;1.50;;;17.00;1.00;;;;;;4942068;28;20023;-77
2023/09/26 03:33:12;;;;;;;2.00;1.90;;;17.00;1.00;;;;;;5021520;28;20027;-77
2023/09/26 03:35:38;;;;;;;1.80;1.70;;;16.90;1.00;;;;;;5006058;28;20027;-77
2023/09/26 03:38:04;;;;;;;3.90;1.63;;;17.00;1.00;;;;;;4941132;28;20491;-76
2023/09/26 03:40:30;;;;;;;2.03;1.90;;;17.00;1.00;;;;;;4938948;28;20047;-77
2023/09/26 03:42:56;;;;;;;6.20;1.98;;;17.00;1.00;;;;;;4938784;28;20434;-76
2023/09/26 03:45:24;;;;;;;2.88;1.90;;;17.00;1.00;;;;;;4941046;28;20027;-77
2023/09/26 03:47:50;;;;;;;4.82;2.05;;;17.00;1.00;;;;;;4938189;28;20050;-76
2023/09/26 03:50:16;;;;;;;2.22;1.77;;;17.00;1.00;;;;;;4941243;28;20019;-77
2023/09/26 03:52:41;;;;;;;2.38;1.77;;;17.00;1.00;;;;;;4937783;28;20027;-77
2023/09/26 03:55:08;;;;;;;2.50;1.70;;;17.00;1.00;;;;;;4941416;28;20415;-77
2023/09/26 03:57:34;;;;;;;5.68;2.03;;;16.90;1.00;;;;;;4941919;28;20479;-77
2023/09/26 04:00:01;;;;;;;2.60;1.90;;;16.90;1.00;;;;;;4939947;28;20031;-76
2023/09/26 04:02:28;;;;;;;2.90;1.70;;;16.90;1.00;;;;;;4944612;28;20514;-76
2023/09/26 04:04:53;;;;;;;1.83;1.73;;;16.90;1.00;;;;;;4992027;28;20028;-77
2023/09/26 04:07:19;;;;;;;1.98;1.70;;;16.90;1.00;;;;;;4942765;29;20031;-77
2023/09/26 04:09:45;;;;;;;3.00;1.65;;;16.90;1.00;;;;;;4943271;28;20027;-77
2023/09/26 04:12:10;;;;;;;1.85;1.50;;;16.90;1.00;;;;;;4944042;28;20106;-74
2023/09/26 04:14:36;;;;;;;1.73;1.58;;;16.90;1.00;;;;;;5008099;28;20032;-77
2023/09/26 04:17:02;;;;;;;2.42;1.95;;;16.90;1.00;;;;;;4944893;28;20032;-76
2023/09/26 04:19:28;;;;;;;1.90;1.60;;;16.90;1.00;;;;;;4942033;28;20027;-77
2023/09/26 04:21:54;;;;;;;3.42;2.00;;;16.90;1.00;;;;;;4941649;28;20036;-77
2023/09/26 04:24:20;;;;;;;2.25;1.83;;;16.90;1.00;;;;;;4942515;28;20034;-75
2023/09/26 04:26:46;;;;;;;1.75;1.50;;;16.90;1.00;;;;;;5018970;28;20028;-76
2023/09/26 04:29:13;;;;;;;1.83;1.73;;;16.90;1.00;;;;;;5007664;28;20107;-77
2023/09/26 04:31:38;;;;;;;2.58;1.70;;;16.90;1.00;;;;;;5017520;28;20583;-76
2023/09/26 04:34:04;;;;;;;3.30;1.75;;;16.90;1.00;;;;;;4942885;28;20082;-76
2023/09/26 04:36:30;;;;;;;1.90;1.70;;;16.90;1.00;;;;;;4944021;28;20406;-77
2023/09/26 04:38:56;;;;;;;2.35;1.85;;;17.00;1.00;;;;;;4941497;28;20158;-76
2023/09/26 04:41:22;;;;;;;2.17;1.60;;;17.00;1.00;;;;;;4941571;28;20623;-76
2023/09/26 04:43:48;;;;;;;2.13;1.92;;;17.00;1.00;;;;;;4943155;29;20486;-76
2023/09/26 04:46:14;;;;;;;1.77;1.67;;;17.00;1.00;;;;;;5008949;28;20038;-76
2023/09/26 04:48:42;;;;;;;3.35;2.13;;;17.00;1.00;;;;;;4941997;28;20119;-76
2023/09/26 04:51:12;;;;;;;2.00;1.80;;;17.00;1.00;;;;;;5014125;28;21361;-77
2023/09/26 04:53:38;;;;;;;2.50;1.55;;;17.00;1.00;;;;;;4942077;28;20126;-77
2023/09/26 04:56:04;;;;;;;3.55;1.90;;;16.90;1.00;;;;;;4961102;28;20059;-77
2023/09/26 04:58:32;;;;;;;1.80;1.70;;;16.90;1.00;;;;;;4949074;28;20169;-77
2023/09/26 05:01:00;;;;;;;2.40;2.20;;;16.90;1.00;;;;;;4941049;28;20113;-77
2023/09/26 05:03:27;;;;;;;6.30;2.22;;;16.90;1.00;;;;;;4942984;28;20438;-76
2023/09/26 05:05:53;;;;;;;2.03;1.88;;;17.00;1.00;;;;;;4942709;28;20027;-77
2023/09/26 05:08:19;;;;;;;4.95;1.58;;;17.00;1.00;;;;;;4941565;28;20020;-77
2023/09/26 05:10:48;;;;;;;2.78;1.88;;;17.00;1.00;;;;;;4947311;28;20241;-77
2023/09/26 05:13:15;;;;;;;4.28;1.55;;;17.00;1.00;;;;;;5017880;28;20031;-77
2023/09/26 05:15:41;;;;;;;1.98;1.80;;;17.00;1.00;;;;;;4947831;28;20118;-77
2023/09/26 05:18:06;;;;;;;1.90;1.80;;;17.00;1.00;;;;;;5017729;28;20110;-77
2023/09/26 05:20:32;;;;;;;2.50;2.30;;;17.00;1.00;;;;;;4954336;28;20023;-77
2023/09/26 05:23:00;;;;;;;4.05;1.92;;;17.00;1.00;;;;;;4949983;28;20498;-78
2023/09/26 05:25:26;;;;;;;3.70;2.20;;;17.00;1.00;;;;;;4951292;28;20020;-77
2023/09/26 05:27:52;;;;;;;1.95;1.80;;;17.00;1.00;;;;;;4950616;28;20610;-77
2023/09/26 05:30:18;;;;;;;1.95;1.70;;;17.00;1.00;;;;;;4951272;29;20058;-77
2023/09/26 05:32:46;;;;;;;3.70;1.88;;;17.00;1.00;;;;;;4951144;28;20015;-76
2023/09/26 05:35:12;;;;;;;3.70;1.75;;;17.00;1.00;;;;;;4951054;28;20028;-77
2023/09/26 05:37:38;;;;;;;4.38;1.90;;;17.00;1.00;;;;;;5017241;28;20112;-77
2023/09/26 05:40:09;;;;;;;4.95;2.10;;;17.00;1.00;;;;;;4944133;28;20050;-78
2023/09/26 05:42:39;;;;;;;2.00;1.80;;;17.00;1.00;;;;;;4943453;28;20027;-76
2023/09/26 05:45:08;;;;;;;4.82;2.28;;;17.00;1.00;;;;;;4941827;28;20112;-77
2023/09/26 05:47:34;;;;;;;2.22;1.98;;;17.00;1.00;;;;;;4940983;28;20035;-77
2023/09/26 05:50:00;;;;;;;2.38;1.70;;;17.00;1.00;;;;;;4942280;29;20114;-77
2023/09/26 05:52:27;;;;;;;2.22;2.03;;;17.00;1.00;;;;;;4940260;28;20028;-76
2023/09/26 05:54:52;;;;;;;5.55;2.00;;;17.00;1.00;;;;;;4941756;28;20059;-77
2023/09/26 05:57:18;;;;;;;3.72;2.20;;;17.10;1.00;;;;;;4959935;28;20032;-76
2023/09/26 05:59:44;;;;;;;2.65;1.90;;;17.20;1.00;;;;;;4942525;28;20042;-78
2023/09/26 06:02:13;;;;;;;5.03;2.22;;;17.20;1.00;;;;;;5006881;28;20054;-77
2023/09/26 06:04:42;;;;;;;2.40;1.95;;;17.30;1.00;;;;;;4942245;28;20028;-77
2023/09/26 06:07:09;;;;;;;3.05;1.92;;;17.30;1.00;;;;;;5005004;28;20028;-77
2023/09/26 06:09:38;;;;;;;2.28;1.80;;;17.30;1.00;;;;;;4941571;28;20027;-77
2023/09/26 06:12:04;;;;;;;5.13;1.98;;;17.30;1.00;;;;;;4939028;28;20020;-77
2023/09/26 06:14:31;;;;;;;3.63;2.00;;;17.40;1.00;;;;;;4941010;28;20065;-77
2023/09/26 06:16:57;;;;;;;2.28;2.08;;;17.30;1.00;;;;;;4941322;28;20063;-76
2023/09/26 06:19:23;;;;;;;3.25;1.92;;;17.40;1.00;;;;;;4937711;28;20444;-74
2023/09/26 06:21:49;;;;;;;4.55;2.53;;;17.40;1.00;;;;;;4956443;28;20063;-74
2023/09/26 06:24:14;;;;;;;5.13;2.03;;;17.50;1.00;;;;;;4935483;28;20031;-74
2023/09/26 06:26:40;;;;;;;3.67;1.85;;;17.50;1.00;;;;;;5022738;28;20384;-77
2023/09/26 06:29:05;;;;;;;4.55;2.28;;;17.50;1.00;;;;;;4937750;29;20028;-77
2023/09/26 06:31:31;;;;;;;4.15;2.10;;;17.50;1.00;;;;;;4946364;28;20027;-74
2023/09/26 06:34:00;;;;;;;5.00;2.17;;;17.50;1.00;;;;;;5014526;28;20031;-74
2023/09/26 06:36:30;;;;;;;4.43;2.35;;;17.60;1.00;;;;;;4944772;28;20034;-75
2023/09/26 06:38:56;;;;;;;3.63;1.98;;;17.60;1.00;;;;;;5017977;28;20027;-76
2023/09/26 06:41:22;;;;;;;2.85;1.92;;;17.70;1.00;;;;;;4951814;28;20066;-77
2023/09/26 06:43:48;;;;;;;2.65;2.05;;;17.70;1.00;;;;;;4943083;29;20051;-76
2023/09/26 06:46:14;;;;;;;2.25;2.03;;;17.80;1.00;;;;;;4946514;28;20726;-75
2023/09/26 06:48:41;;;;;;;5.63;2.03;;;17.80;1.00;;;;;;4944758;28;20034;-74
2023/09/26 06:51:08;;;;;;;2.08;1.83;;;17.80;1.00;;;;;;4941576;28;20028;-74
2023/09/26 06:53:35;;;;;;;2.55;1.75;;;17.80;1.00;;;;;;5013723;28;20132;-77
2023/09/26 06:56:02;;;;;;;3.05;1.83;;;17.90;1.00;;;;;;4932829;28;20032;-77
2023/09/26 06:58:29;;;;;;;3.85;1.77;;;17.90;1.00;;;;;;4999540;28;20029;-77
2023/09/26 07:00:55;;;;;;;3.22;2.22;;;18.00;1.00;;;;;;4951979;28;20117;-77
2023/09/26 07:03:21;;;;;;;2.83;2.03;;;18.10;1.00;;;;;;4952010;28;20714;-77
2023/09/26 07:05:47;;;;;;;2.72;2.00;;;18.10;1.00;;;;;;4951975;28;20019;-77
2023/09/26 07:08:14;;;;;;;5.65;2.15;;;18.20;1.00;;;;;;4946733;28;20048;-77
2023/09/26 07:10:40;;;;;;;4.20;2.10;;;18.30;1.00;;;;;;4932911;28;20127;-77
2023/09/26 07:13:06;;;;;;;3.72;2.35;;;18.30;1.00;;;;;;4932819;28;20392;-77
2023/09/26 07:15:33;;;;;;;1.83;1.73;;;18.30;1.00;;;;;;4932790;28;20475;-77
2023/09/26 07:17:59;;;;;;;2.42;1.98;;;18.40;1.00;;;;;;4932568;28;20618;-77
2023/09/26 07:20:25;;;;;;;2.78;2.00;;;18.40;1.00;;;;;;4943718;28;20133;-77
2023/09/26 07:22:51;;;;;;;3.97;1.95;;;18.40;1.00;;;;;;4951656;28;20031;-77
2023/09/26 07:25:17;;;;;;;5.18;1.70;;;18.50;1.00;;;;;;4951787;29;20356;-77
2023/09/26 07:27:45;;;;;;;4.60;1.80;;;18.60;1.00;;;;;;4996224;28;20035;-77
2023/09/26 07:30:11;;;;;;;4.95;2.30;;;18.60;1.00;;;;;;4942781;28;20090;-74
2023/09/26 07:32:37;;;;;;;3.08;2.17;;;18.70;1.00;;;;;;4949496;28;20658;-74
2023/09/26 07:35:03;;;;;;;1.98;1.77;;;18.70;1.00;;;;;;4953169;28;20499;-74
2023/09/26 07:37:31;;;;;;;2.22;2.03;;;18.70;1.00;;;;;;4954971;28;20387;-77
2023/09/26 07:39:57;;;;;;;4.05;2.40;;;18.80;1.00;;;;;;5021435;28;20062;-76
2023/09/26 07:42:23;;;;;;;3.75;1.90;;;18.80;1.00;;;;;;4954916;28;20019;-77
2023/09/26 07:44:48;;;;;;;4.68;2.90;;;18.80;1.00;;;;;;5016809;28;20140;-77
2023/09/26 07:47:14;;;;;;;3.80;2.90;;;19.00;1.00;;;;;;4941857;28;20023;-77
2023/09/26 07:49:40;;;;;;;8.35;4.68;;;19.00;1.00;;;;;;4944480;28;20483;-77
2023/09/26 07:52:07;;;;;;;4.53;3.83;;;19.00;1.00;;;;;;4943108;28;20616;-76
2023/09/26 07:54:33;;;;;;;5.93;3.90;;;19.10;1.00;;;;;;4942405;28;20142;-75
2023/09/26 07:56:59;;;;;;;6.18;3.60;;;19.10;1.00;;;;;;4944497;28;20024;-74
2023/09/26 07:59:24;;;;;;;5.80;4.13;;;19.20;1.00;;;;;;4944287;28;20027;-74
2023/09/26 08:01:50;;;;;;;5.13;4.32;;;19.30;1.00;;;;;;4941623;28;20201;-77
2023/09/26 08:04:16;;;;;;;8.68;4.32;;;19.40;1.00;;;;;;4943042;28;20070;-77
2023/09/26 08:06:42;;;;;;;8.80;5.20;;;19.40;1.00;;;;;;4945396;28;20107;-77
2023/09/26 08:09:10;;;;;;;6.55;5.00;;;19.40;1.00;;;;;;4942917;28;20023;-77
2023/09/26 08:11:37;;;;;;;7.10;5.07;;;19.40;1.00;;;;;;4944921;28;20028;-77
2023/09/26 08:14:03;;;;;;;8.52;5.43;;;19.50;1.00;;;;;;5008134;28;20032;-76
2023/09/26 08:16:29;;;;;;;7.10;5.47;;;19.50;1.00;;;;;;4943856;28;20486;-77
2023/09/26 08:18:55;;;;;;;6.07;5.03;;;19.50;1.00;;;;;;4943832;28;20031;-77
2023/09/26 08:21:20;;;;;;;5.85;5.35;;;19.60;1.00;;;;;;4940898;28;20174;-76
2023/09/26 08:23:46;;;;;;;6.00;5.13;;;19.60;1.00;;;;;;5018971;28;20383;-77
2023/09/26 08:26:12;;;;;;;7.70;5.25;;;19.60;1.00;;;;;;4956208;28;20402;-76
2023/09/26 08:28:41;;;;;;;6.28;5.63;;;19.60;1.00;;;;;;5053480;28;20018;-77
2023/09/26 08:31:10;;;;;;;7.15;4.75;;;19.70;1.00;;;;;;4951628;28;20020;-77
2023/09/26 08:33:37;;;;;;;9.65;5.63;;;20.00;99.90;;;;;;4952816;29;20433;-75
2023/09/26 08:36:12;;;;;;;8.90;5.00;;;20.00;1.00;;;;;;4952798;28;20415;-74
2023/09/26 08:38:38;;;;;;;7.03;5.10;;;20.00;1.00;;;;;;5019326;28;20031;-76
2023/09/26 08:41:05;;;;;;;14.05;6.00;;;20.10;1.00;;;;;;4952878;29;20121;-77
2023/09/26 08:43:33;;;;;;;5.22;4.82;;;20.20;1.00;;;;;;5018494;28;20031;-77
2023/09/26 08:45:59;;;;;;;7.28;5.60;;;20.20;99.90;;;;;;5017999;28;20028;-77
2023/09/26 08:48:25;;;;;;;5.95;5.40;;;20.20;1.00;;;;;;4953003;28;20042;-77
2023/09/26 08:50:52;;;;;;;5.85;5.35;;;20.20;99.90;;;;;;4966109;28;20034;-77
2023/09/26 08:53:18;;;;;;;6.72;5.03;;;20.20;99.90;;;;;;5015761;28;20025;-77
2023/09/26 08:55:45;;;;;;;5.70;5.20;;;20.20;1.00;;;;;;5015795;28;20543;-77
2023/09/26 08:58:13;;;;;;;9.30;5.63;;;20.20;1.00;;;;;;4963763;28;20035;-77
2023/09/26 09:00:39;;;;;;;5.75;5.20;;;20.20;1.00;;;;;;5018742;28;20027;-77
2023/09/26 09:03:05;;;;;;;6.32;5.03;;;20.30;1.00;;;;;;4952206;28;20065;-77
2023/09/26 09:05:30;;;;;;;5.97;5.38;;;20.30;1.00;;;;;;4964309;28;20031;-77
2023/09/26 09:07:56;;;;;;;5.93;5.43;;;20.40;1.00;;;;;;4952670;28;20019;-77
2023/09/26 09:10:23;;;;;;;9.00;5.75;;;20.40;1.00;;;;;;4947599;28;20030;-77
2023/09/26 09:13:00;;;;;;;5.43;4.93;;;20.40;1.00;;;;;;4943888;28;20103;-77
2023/09/26 09:15:27;;;;;;;7.20;4.50;;;20.50;1.00;;;;;;4943882;28;20019;-77
2023/09/26 09:17:53;;;;;;;7.68;5.18;;;20.60;1.00;;;;;;4940869;28;20373;-77
2023/09/26 09:20:34;;;;;;;8.55;5.38;;;20.60;99.90;;;;;;5009679;28;20027;-77
2023/09/26 09:23:04;;;;;;;7.57;4.50;;;20.60;1.00;;;;;;4942863;28;20470;-77
2023/09/26 09:25:35;;;;;;;8.32;4.63;;;20.60;99.90;;;;;;4940539;28;20239;-77
2023/09/26 09:28:02;;;;;;;5.55;4.65;;;20.60;99.90;;;;;;4958737;28;20027;-77
2023/09/26 09:30:28;;;;;;;6.53;4.13;;;20.60;99.90;;;;;;4941576;28;20103;-77
2023/09/26 09:32:55;;;;;;;5.28;4.13;;;20.60;1.00;;;;;;4942351;28;20027;-77
2023/09/26 09:35:22;;;;;;;8.63;4.53;;;20.80;99.90;;;;;;4946303;28;20028;-77
2023/09/26 09:37:50;;;;;;;3.88;3.58;;;20.90;99.90;;;;;;4941816;28;20027;-77
2023/09/26 09:40:20;;;;;;;4.90;3.67;;;20.90;99.90;;;;;;4939001;28;20505;-75
2023/09/26 09:42:52;;;;;;;4.88;3.45;;;21.00;99.90;;;;;;4939894;28;20045;-77
2023/09/26 09:45:18;;;;;;;;;;;21.10;99.90;;;;;;4937837;28;20028;-75
2023/09/26 09:47:45;;;;;;;4.15;3.75;;;21.30;99.90;;;;;;4939863;28;19907;-77
2023/09/26 09:50:13;;;;;;;8.05;4.50;;;21.50;99.90;;;;;;4937215;28;20028;-78
2023/09/26 09:52:44;;;;;;;4.07;3.50;;;21.60;92.50;;;;;;4939796;28;20020;-77
2023/09/26 09:55:19;;;;;;;4.38;3.60;;;21.70;99.90;;;;;;4935981;29;20201;-75
2023/09/26 09:57:49;;;;;;;5.00;3.92;;;21.90;2.70;;;;;;4959029;28;20054;-77
2023/09/26 10:00:16;;;;;;;5.88;3.55;;;22.00;1.00;;;;;;4936652;28;20157;-75
2023/09/26 10:02:42;;;;;;;4.95;3.88;;;22.00;1.00;;;;;;4937968;28;20172;-78
2023/09/26 10:05:12;;;;;;;10.50;4.40;;;22.00;1.00;;;;;;4940834;29;20070;-77
2023/09/26 10:07:40;;;;;;;6.25;4.05;;;22.00;99.90;;;;;;5000898;28;20024;-76
2023/09/26 10:10:10;;;;;;;7.32;4.00;;;21.90;99.90;;;;;;4938121;28;20054;-77
2023/09/26 10:12:38;;;;;;;5.07;3.85;;;21.90;1.00;;;;;;5012097;28;20027;-76
2023/09/26 10:15:10;;;;;;;5.10;4.40;;;22.00;1.00;;;;;;4936308;28;20028;-76
2023/09/26 10:17:35;;;;;;;5.97;3.97;;;22.10;1.00;;;;;;4938723;28;20390;-78
2023/09/26 10:20:01;;;;;;;5.90;4.65;;;22.10;1.00;;;;;;4935877;28;20028;-77
2023/09/26 10:22:34;;;;;;;5.22;4.10;;;22.20;99.90;;;;;;5004863;28;20020;-78
2023/09/26 10:25:01;;;;;;;4.35;4.05;;;22.20;99.90;;;;;;4936901;28;20106;-78
2023/09/26 10:27:33;;;;;;;4.40;4.10;;;22.10;99.90;;;;;;4941702;28;20083;-77
2023/09/26 10:30:00;;;;;;;5.85;4.63;;;22.20;99.90;;;;;;4936673;28;20054;-77
2023/09/26 10:32:35;;;;;;;8.38;4.78;;;22.20;99.90;;;;;;4938718;28;20034;-77
2023/09/26 10:35:31;;;;;;;5.88;4.95;;;22.20;99.90;;;;;;4936839;28;20407;-76
2023/09/26 10:38:18;;;;;;;9.18;5.43;;;22.20;99.90;;;;;;4943407;28;20048;-78
2023/09/26 10:40:47;;;;;;;5.30;4.80;;;22.30;99.90;;;;;;5001529;28;20032;-77
2023/09/26 10:43:17;;;;;;;6.10;5.05;;;22.20;99.90;;;;;;4939400;28;20059;-78
2023/09/26 10:45:45;;;;;;;8.70;5.20;;;22.20;99.90;;;;;;4935933;28;20020;-76
2023/09/26 10:48:18;;;;;;;6.95;5.18;;;22.20;1.00;;;;;;4938171;28;20031;-77
2023/09/26 10:50:44;;;;;;;7.00;6.25;;;22.20;99.90;;;;;;4936817;28;20164;-77
2023/09/26 10:53:10;;;;;;;5.72;5.00;;;22.30;99.90;;;;;;4937601;28;20526;-77
2023/09/26 10:55:37;;;;;;;5.68;5.18;;;22.40;1.00;;;;;;5001689;28;20043;-76
2023/09/26 10:58:04;;;;;;;11.75;5.38;;;22.40;1.00;;;;;;4946201;28;20042;-77
2023/09/26 11:00:29;;;;;;;8.50;5.88;;;22.40;1.00;;;;;;5003639;28;20032;-78
2023/09/26 11:02:57;;;;;;;10.90;5.72;;;22.40;99.90;;;;;;5004159;28;20455;-78
2023/09/26 11:05:26;;;;;;;10.48;5.90;;;22.30;99.90;;;;;;4938080;28;20414;-78
2023/09/26 11:07:54;;;;;;;6.43;5.80;;;22.40;1.00;;;;;;4987099;28;20326;-77
2023/09/26 11:10:20;;;;;;;7.07;6.38;;;22.50;99.90;;;;;;4941571;28;20020;-78
2023/09/26 11:12:46;;;;;;;6.82;6.18;;;22.40;99.90;;;;;;4942533;28;20031;-77
2023/09/26 11:15:12;;;;;;;10.32;5.90;;;22.50;99.90;;;;;;4943232;28;20453;-77
2023/09/26 11:17:38;;;;;;;8.15;5.88;;;22.50;99.90;;;;;;4942770;28;20059;-74
2023/09/26 11:20:05;;;;;;;7.00;6.40;;;22.60;99.90;;;;;;4942440;28;20551;-75
2023/09/26 11:22:47;;;;;;;18.95;6.28;;;22.60;99.90;;;;;;4940618;29;20047;-74
2023/09/26 11:25:13;;;;;;;10.07;7.32;;;22.80;99.90;;;;;;4942931;28;20031;-78
2023/09/26 11:27:41;;;;;;;11.45;5.75;;;22.80;99.90;;;;;;5010241;28;20024;-78
2023/09/26 11:30:14;;;;;;;7.60;5.82;;;22.90;99.90;;;;;;4942012;28;20059;-74
2023/09/26 11:32:52;;;;;;;6.78;6.07;;;23.00;99.90;;;;;;4941295;28;20020;-75
2023/09/26 11:35:20;;;;;;;8.35;5.97;;;23.10;99.90;;;;;;4942635;28;20122;-78
2023/09/26 11:37:53;;;;;;;6.80;6.22;;;23.10;99.90;;;;;;4943001;28;20554;-76
2023/09/26 11:40:26;;;;;;;6.55;5.72;;;23.20;99.90;;;;;;4942252;28;20024;-77
2023/09/26 11:42:55;;;;;;;8.73;5.82;;;23.30;99.90;;;;;;4948665;28;20023;-77
2023/09/26 11:45:24;;;;;;;6.85;5.80;;;23.20;99.90;;;;;;5021364;28;20031;-74
2023/09/26 11:47:52;;;;;;;8.23;6.63;;;23.20;99.90;;;;;;4946092;28;20383;-77
2023/09/26 11:50:18;;;;;;;6.60;6.00;;;23.30;99.90;;;;;;4948367;28;20143;-74
2023/09/26 11:52:44;;;;;;;8.02;5.75;;;23.20;99.90;;;;;;4947827;28;20514;-77
2023/09/26 11:55:17;;;;;;;6.60;5.85;;;23.30;99.90;;;;;;4947908;28;20098;-77
2023/09/26 11:57:44;;;;;;;7.10;5.28;;;23.40;99.90;;;;;;4967837;28;20035;-74
2023/09/26 12:00:15;;;;;;;6.57;5.55;;;23.50;99.90;;;;;;4946400;28;20482;-72
2023/09/26 12:02:45;;;;;;;7.95;5.22;;;23.50;99.90;;;;;;4948425;28;20063;-75
2023/09/26 12:05:12;;;;;;;8.93;5.47;;;23.60;99.90;;;;;;4944888;28;20111;-75
2023/09/26 12:07:41;;;;;;;7.50;5.88;;;23.60;99.90;;;;;;4947691;28;20024;-74
2023/09/26 12:10:08;;;;;;;6.00;5.40;;;23.60;99.90;;;;;;4946068;28;20028;-74
2023/09/26 12:12:35;;;;;;;7.20;5.43;;;23.70;99.90;;;;;;4946337;28;20031;-74
2023/09/26 12:15:15;;;;;;;11.88;5.72;;;23.90;99.90;;;;;;4947061;28;20031;-74
2023/09/26 12:17:41;;;;;;;8.77;5.82;;;24.00;99.90;;;;;;4945425;28;20032;-74
2023/09/26 12:20:08;;;;;;;8.18;5.72;;;24.00;99.90;;;;;;5012525;28;20069;-74
2023/09/26 12:22:34;;;;;;;11.05;5.35;;;24.10;99.90;;;;;;4940169;28;20549;-74
2023/09/26 12:25:00;;;;;;;6.50;5.80;;;24.10;99.90;;;;;;4943337;28;20035;-73
2023/09/26 12:27:26;;;;;;;10.35;6.82;;;24.00;75.70;;;;;;4948323;28;20031;-74
2023/09/26 12:29:51;;;;;;;8.57;6.22;;;24.00;99.90;;;;;;4942272;28;20040;-73
2023/09/26 12:32:17;;;;;;;6.35;5.70;;;23.90;99.90;;;;;;4944158;28;20051;-73
2023/09/26 12:34:43;;;;;;;5.43;4.93;;;23.90;99.90;;;;;;4941647;28;20039;-74
2023/09/26 12:37:09;;;;;;;8.32;4.82;;;24.10;99.90;;;;;;4944648;28;20039;-73
2023/09/26 12:39:34;;;;;;;10.00;5.43;;;24.10;99.90;;;;;;4941289;28;20039;-73
2023/09/26 12:42:00;;;;;;;7.72;5.13;;;24.20;99.90;;;;;;5010993;28;20028;-73
2023/09/26 12:44:26;;;;;;;7.05;4.88;;;24.20;99.90;;;;;;4943923;28;20106;-74
2023/09/26 12:46:52;;;;;;;5.20;4.70;;;24.20;96.80;;;;;;4942081;28;20387;-74
2023/09/26 12:49:20;;;;;;;6.90;5.63;;;24.20;99.90;;;;;;4943181;28;20067;-74
2023/09/26 12:51:46;;;;;;;7.38;5.00;;;24.40;99.90;;;;;;4939695;28;20494;-73